Time;durP1;ratioP1;P1;durP2;ratioP2;P2;SDS_P1;SDS_P2;PMS_P1;PMS_P2;Temp;Humidity;BMP_temperature;BMP_pressure;BME280_temperature;BME280_humidity;BME280_pressure;Samples;Min_cycle;Max_cycle;Signal;HPM_P1;HPM_P2
2023/06/09 00:00:38;;;;;;;18.73;16.73;;;21.50;95.80;;;;;;5056618;28;20024;-58
2023/06/09 00:03:05;;;;;;;20.45;16.77;;;21.50;96.20;;;;;;5064017;28;20035;-60
2023/06/09 00:05:34;;;;;;;17.83;15.90;;;21.40;96.00;;;;;;5055194;28;20495;-57
2023/06/09 00:08:00;;;;;;;18.63;16.83;;;21.40;96.00;;;;;;5067726;28;20081;-58
2023/06/09 00:10:27;;;;;;;17.48;15.75;;;21.40;96.40;;;;;;5057143;28;20496;-60
2023/06/09 00:12:54;;;;;;;18.55;16.50;;;21.30;96.30;;;;;;5055715;28;20396;-57
2023/06/09 00:15:20;;;;;;;;;;;21.30;96.30;;;;;;5065785;28;20029;-59
2023/06/09 00:17:46;;;;;;;19.60;17.48;;;21.30;96.40;;;;;;5059758;28;19931;-60
2023/06/09 00:20:13;;;;;;;21.70;16.27;;;21.30;96.60;;;;;;5064634;28;20134;-59
2023/06/09 00:22:45;;;;;;;18.73;16.75;;;21.30;96.70;;;;;;5056768;28;20036;-55
2023/06/09 00:25:12;;;;;;;18.13;16.17;;;21.30;96.60;;;;;;5071153;28;20032;-59
2023/06/09 00:27:43;;;;;;;17.58;15.77;;;21.30;96.80;;;;;;5062026;28;20096;-58
2023/06/09 00:30:10;;;;;;;18.10;16.33;;;21.20;96.80;;;;;;5067927;28;20021;-59
2023/06/09 00:32:36;;;;;;;17.23;15.50;;;21.20;96.90;;;;;;5069342;28;20029;-58
2023/06/09 00:35:03;;;;;;;18.52;15.20;;;21.30;96.90;;;;;;5066761;28;20044;-59
2023/06/09 00:37:30;;;;;;;16.30;14.60;;;21.20;97.00;;;;;;5062309;28;20424;-60
2023/06/09 00:39:57;;;;;;;15.85;14.20;;;21.20;96.90;;;;;;5064244;28;20127;-57
2023/06/09 00:42:24;;;;;;;17.30;15.60;;;21.20;96.60;;;;;;5069964;28;20070;-59
2023/06/09 00:44:50;;;;;;;16.38;13.13;;;21.20;96.70;;;;;;5067538;28;20025;-58
2023/06/09 00:47:17;;;;;;;14.13;12.82;;;21.20;96.80;;;;;;5063066;28;20071;-57
2023/06/09 00:49:43;;;;;;;15.50;13.90;;;21.20;96.60;;;;;;5064073;28;20055;-58
2023/06/09 00:52:10;;;;;;;14.48;13.13;;;21.20;96.80;;;;;;5067402;28;20032;-59
2023/06/09 00:54:37;;;;;;;13.93;12.52;;;21.20;96.60;;;;;;5055828;28;20021;-55
2023/06/09 00:57:05;;;;;;;15.55;13.98;;;21.20;96.60;;;;;;5063162;28;20029;-57
2023/06/09 00:59:36;;;;;;;14.48;12.98;;;21.10;96.50;;;;;;5060433;28;20051;-58
2023/06/09 01:02:04;;;;;;;15.73;14.15;;;21.10;96.60;;;;;;5066833;28;20029;-55
2023/06/09 01:04:32;;;;;;;18.67;13.80;;;21.10;96.90;;;;;;5072268;28;20028;-58
2023/06/09 01:07:22;;;;;;;15.55;14.05;;;21.00;96.90;;;;;;5067480;28;20056;-57
2023/06/09 01:10:14;;;;;;;14.35;12.82;;;21.00;96.50;;;;;;5051600;28;20033;-57
2023/06/09 01:13:05;;;;;;;15.35;13.32;;;21.00;96.10;;;;;;5051093;28;20033;-59
2023/06/09 01:15:37;;;;;;;15.10;13.40;;;21.00;96.30;;;;;;5052217;28;20083;-60
2023/06/09 01:18:08;;;;;;;16.58;12.98;;;20.90;97.30;;;;;;5052368;28;20029;-58
2023/06/09 01:20:46;;;;;;;14.10;12.27;;;20.90;97.20;;;;;;5068835;28;20032;-57
2023/06/09 01:23:22;;;;;;;16.40;12.85;;;20.80;97.30;;;;;;5070931;28;20024;-59
2023/06/09 01:25:50;;;;;;;13.90;12.38;;;20.80;97.30;;;;;;5070788;28;20029;-57
2023/06/09 01:28:20;;;;;;;14.55;11.63;;;20.80;97.40;;;;;;5054243;28;20052;-57
2023/06/09 01:30:48;;;;;;;14.65;11.93;;;20.80;97.50;;;;;;5054248;28;20039;-60
2023/06/09 01:33:33;;;;;;;14.70;12.15;;;20.80;97.30;;;;;;5053349;28;20025;-57
2023/06/09 01:35:59;;;;;;;12.30;10.95;;;20.80;96.80;;;;;;5064053;28;20086;-57
2023/06/09 01:38:25;;;;;;;13.05;11.45;;;20.70;97.30;;;;;;5053809;28;20107;-57
2023/06/09 01:40:51;;;;;;;13.10;10.63;;;20.70;97.20;;;;;;5067769;28;20104;-55
2023/06/09 01:43:18;;;;;;;13.55;12.18;;;20.70;97.10;;;;;;5057447;28;20024;-59
2023/06/09 01:45:43;;;;;;;11.75;10.65;;;20.70;97.00;;;;;;5065213;28;20461;-59
2023/06/09 01:48:21;;;;;;;14.15;11.60;;;20.70;97.10;;;;;;5065861;28;20055;-58
2023/06/09 01:50:55;;;;;;;12.63;11.25;;;20.70;97.00;;;;;;5065885;28;20446;-58
2023/06/09 01:53:30;;;;;;;14.18;11.63;;;20.60;97.30;;;;;;5061162;28;20543;-59
2023/06/09 01:56:14;;;;;;;12.80;11.50;;;20.60;97.40;;;;;;5056722;28;20036;-57
2023/06/09 01:58:46;;;;;;;16.58;12.50;;;20.60;97.40;;;;;;5063320;28;20032;-58
2023/06/09 02:01:16;;;;;;;17.17;10.98;;;20.50;97.40;;;;;;5053182;28;20043;-58
2023/06/09 02:03:44;;;;;;;13.05;11.75;;;20.50;97.80;;;;;;5065278;28;20037;-59
2023/06/09 02:06:17;;;;;;;12.50;11.27;;;20.50;97.90;;;;;;5062474;28;20115;-56
2023/06/09 02:08:43;;;;;;;15.50;10.95;;;20.50;97.60;;;;;;5059481;28;20087;-54
2023/06/09 02:11:10;;;;;;;17.33;11.60;;;20.50;97.80;;;;;;5053815;28;20021;-59
2023/06/09 02:13:36;;;;;;;13.32;11.93;;;20.50;98.00;;;;;;5061921;28;20060;-60
2023/06/09 02:16:02;;;;;;;16.17;13.18;;;20.50;98.00;;;;;;5069592;28;20424;-60
2023/06/09 02:18:28;;;;;;;15.15;13.55;;;20.40;98.20;;;;;;5070315;28;20033;-61
2023/06/09 02:20:54;;;;;;;13.43;12.05;;;20.40;98.20;;;;;;5056433;28;20078;-58
2023/06/09 02:23:21;;;;;;;13.20;11.35;;;20.40;98.20;;;;;;5050306;28;20037;-57
2023/06/09 02:25:48;;;;;;;17.05;12.35;;;20.30;98.20;;;;;;5049834;28;20033;-57
2023/06/09 02:28:15;;;;;;;13.68;10.45;;;20.30;98.40;;;;;;5051436;28;20078;-59
2023/06/09 02:30:41;;;;;;;15.93;11.70;;;20.30;98.40;;;;;;5059249;28;20059;-58
2023/06/09 02:33:08;;;;;;;15.95;11.80;;;20.30;98.50;;;;;;5056006;28;20040;-58
2023/06/09 02:35:34;;;;;;;14.10;12.60;;;20.20;98.50;;;;;;5062217;28;20021;-56
2023/06/09 02:38:05;;;;;;;15.65;14.05;;;20.20;98.60;;;;;;5058333;28;20025;-58
2023/06/09 02:40:32;;;;;;;16.33;12.98;;;20.10;98.90;;;;;;5038994;28;20032;-57
2023/06/09 02:42:59;;;;;;;14.55;13.05;;;19.90;99.50;;;;;;5043024;28;20490;-59
2023/06/09 02:45:25;;;;;;;13.93;12.45;;;19.90;99.60;;;;;;5062991;28;20028;-59
2023/06/09 02:47:52;;;;;;;14.98;13.45;;;19.80;99.40;;;;;;5058822;28;20029;-58
2023/06/09 02:50:18;;;;;;;16.10;13.98;;;19.70;99.40;;;;;;5057933;28;20040;-60
2023/06/09 02:52:48;;;;;;;16.50;13.50;;;19.60;99.90;;;;;;5045042;28;20025;-56
2023/06/09 02:55:14;;;;;;;18.50;14.80;;;19.60;99.90;;;;;;5055290;28;20038;-57
2023/06/09 02:57:45;;;;;;;18.23;15.32;;;19.50;99.90;;;;;;5060988;28;20082;-59
2023/06/09 03:00:12;;;;;;;16.33;14.63;;;19.50;99.90;;;;;;5048686;28;20087;-55
2023/06/09 03:02:41;;;;;;;16.88;15.10;;;19.40;99.90;;;;;;5051283;28;20029;-57
2023/06/09 03:05:08;;;;;;;15.13;13.52;;;19.40;99.90;;;;;;5067440;28;20028;-58
2023/06/09 03:07:34;;;;;;;20.98;15.85;;;19.40;99.90;;;;;;5044564;28;20377;-57
2023/06/09 03:10:02;;;;;;;17.80;13.70;;;19.40;99.90;;;;;;5050777;28;20128;-59
2023/06/09 03:12:33;;;;;;;17.88;14.70;;;19.40;99.90;;;;;;5060656;28;20499;-59
2023/06/09 03:15:00;;;;;;;19.17;15.70;;;19.50;99.90;;;;;;5053676;28;20056;-56
2023/06/09 03:17:26;;;;;;;19.90;15.55;;;19.50;99.90;;;;;;5052190;28;20025;-59
2023/06/09 03:19:52;;;;;;;16.98;15.38;;;19.50;99.90;;;;;;5050655;28;20403;-57
2023/06/09 03:22:18;;;;;;;17.17;15.50;;;19.50;99.90;;;;;;5053665;28;20033;-59
2023/06/09 03:24:45;;;;;;;17.13;15.32;;;19.50;99.90;;;;;;5069922;28;20056;-59
2023/06/09 03:27:11;;;;;;;17.58;15.77;;;19.50;99.90;;;;;;5068344;28;20021;-58
2023/06/09 03:29:37;;;;;;;19.35;15.57;;;19.50;99.90;;;;;;5061445;28;20036;-59
2023/06/09 03:32:04;;;;;;;17.98;16.08;;;19.50;99.90;;;;;;5051545;28;20032;-58
2023/06/09 03:34:31;;;;;;;20.70;15.70;;;19.60;99.90;;;;;;5070427;28;20411;-58
2023/06/09 03:37:00;;;;;;;18.58;15.80;;;19.60;99.90;;;;;;5056023;28;20029;-55
2023/06/09 03:39:26;;;;;;;17.02;15.32;;;19.60;99.90;;;;;;5066841;28;20166;-60
2023/06/09 03:41:54;;;;;;;21.00;17.67;;;19.60;99.90;;;;;;5045484;28;20024;-59
2023/06/09 03:44:22;;;;;;;19.30;17.23;;;19.60;99.90;;;;;;5059641;28;20036;-58
2023/06/09 03:46:48;;;;;;;24.33;16.02;;;19.50;99.90;;;;;;5054499;28;20518;-58
2023/06/09 03:49:14;;;;;;;18.95;17.15;;;19.50;99.90;;;;;;5068674;28;20033;-57
2023/06/09 03:51:40;;;;;;;20.25;17.50;;;19.50;99.90;;;;;;5037078;28;20036;-60
2023/06/09 03:54:06;;;;;;;19.98;17.73;;;19.50;99.90;;;;;;5068520;28;20047;-55
2023/06/09 03:56:33;;;;;;;19.42;17.48;;;19.50;99.90;;;;;;5057053;28;20423;-58
2023/06/09 03:58:59;;;;;;;17.75;15.95;;;19.50;99.90;;;;;;5052529;28;20067;-57
2023/06/09 04:01:25;;;;;;;19.17;16.52;;;19.50;99.90;;;;;;5052071;28;20029;-59
2023/06/09 04:03:51;;;;;;;18.60;15.73;;;19.50;99.90;;;;;;5052587;28;20426;-59
2023/06/09 04:06:17;;;;;;;22.95;16.90;;;19.50;99.90;;;;;;5052372;28;20036;-59
2023/06/09 04:08:44;;;;;;;19.45;16.98;;;19.50;99.90;;;;;;5053810;28;20254;-59
2023/06/09 04:11:11;;;;;;;23.33;17.10;;;19.50;99.90;;;;;;5053705;28;20063;-57
2023/06/09 04:13:39;;;;;;;21.73;17.27;;;19.50;99.90;;;;;;5052359;28;20507;-60
2023/06/09 04:16:05;;;;;;;20.67;17.35;;;19.50;99.90;;;;;;5035131;28;20120;-61
2023/06/09 04:18:31;;;;;;;17.95;15.88;;;19.50;99.90;;;;;;5052035;28;20029;-59
2023/06/09 04:20:57;;;;;;;22.47;17.80;;;19.50;99.90;;;;;;5052195;28;20562;-59
2023/06/09 04:23:27;;;;;;;18.73;16.80;;;19.60;99.90;;;;;;5052263;28;20390;-58
2023/06/09 04:25:53;;;;;;;19.00;17.08;;;19.60;99.90;;;;;;5052091;28;20060;-59
2023/06/09 04:28:21;;;;;;;21.52;17.88;;;19.50;99.90;;;;;;5052100;28;20059;-58
2023/06/09 04:30:51;;;;;;;21.88;18.40;;;19.60;99.90;;;;;;5035832;28;20021;-58
2023/06/09 04:33:18;;;;;;;22.90;19.67;;;19.60;99.90;;;;;;5051024;28;20074;-58
2023/06/09 04:35:46;;;;;;;22.08;16.60;;;19.60;99.90;;;;;;5035462;28;20036;-60
2023/06/09 04:38:17;;;;;;;20.88;17.42;;;19.60;99.90;;;;;;5051980;28;20024;-58
2023/06/09 04:40:45;;;;;;;19.85;17.38;;;19.60;99.90;;;;;;5035289;28;20087;-57
2023/06/09 04:43:11;;;;;;;22.15;17.90;;;19.60;99.90;;;;;;5051725;28;20036;-60
2023/06/09 04:45:39;;;;;;;21.02;18.58;;;19.60;99.90;;;;;;5051524;28;20029;-58
2023/06/09 04:48:13;;;;;;;21.50;18.20;;;19.60;99.90;;;;;;5051790;28;20033;-60
2023/06/09 04:50:39;;;;;;;20.40;18.15;;;19.70;99.90;;;;;;5052956;28;20094;-61
2023/06/09 04:53:07;;;;;;;20.60;18.48;;;19.80;99.90;;;;;;5051731;28;20024;-59
2023/06/09 04:55:37;;;;;;;21.52;18.70;;;19.70;99.90;;;;;;5051349;28;20068;-60
2023/06/09 04:58:05;;;;;;;20.90;18.77;;;19.80;99.90;;;;;;5035061;28;20657;-60
2023/06/09 05:00:31;;;;;;;21.73;18.88;;;19.90;99.90;;;;;;5051362;28;20025;-59
2023/06/09 05:02:59;;;;;;;19.67;17.35;;;19.90;99.90;;;;;;5051381;28;20116;-60
2023/06/09 05:05:26;;;;;;;27.25;18.00;;;20.00;99.90;;;;;;5051241;28;20491;-60
2023/06/09 05:07:52;;;;;;;20.02;17.70;;;20.10;99.90;;;;;;5052812;28;20021;-58
2023/06/09 05:10:23;;;;;;;20.10;18.00;;;20.00;99.90;;;;;;5051128;28;20101;-61
2023/06/09 05:12:50;;;;;;;27.77;23.60;;;20.00;99.90;;;;;;5051457;28;20029;-58
2023/06/09 05:15:16;;;;;;;37.17;31.80;;;20.00;99.90;;;;;;5051082;28;20455;-58
2023/06/09 05:17:44;;;;;;;38.13;29.85;;;20.10;99.90;;;;;;5051169;28;20317;-62
2023/06/09 05:20:10;;;;;;;29.15;24.60;;;20.10;99.90;;;;;;5051079;28;20107;-58
2023/06/09 05:22:37;;;;;;;21.77;18.17;;;20.20;99.90;;;;;;5050980;28;20024;-59
2023/06/09 05:25:03;;;;;;;;;;;20.30;99.90;;;;;;5051211;28;20040;-61
2023/06/09 05:27:30;;;;;;;18.30;16.50;;;20.40;99.90;;;;;;5052256;28;19904;-60
2023/06/09 05:29:56;;;;;;;18.75;16.75;;;20.60;99.90;;;;;;5051012;28;20457;-59
2023/06/09 05:32:23;;;;;;;16.85;15.23;;;20.70;99.90;;;;;;5050846;28;20064;-59
2023/06/09 05:34:50;;;;;;;15.82;14.32;;;20.80;99.90;;;;;;5050741;28;20063;-61
2023/06/09 05:37:16;;;;;;;16.52;14.80;;;21.00;99.90;;;;;;5050882;28;20036;-61
2023/06/09 05:39:43;;;;;;;25.55;21.45;;;21.00;99.90;;;;;;5050830;28;20098;-56
2023/06/09 05:42:09;;;;;;;23.60;19.63;;;21.00;99.90;;;;;;5050737;28;20043;-57
2023/06/09 05:44:35;;;;;;;16.50;14.77;;;21.00;99.90;;;;;;5051806;28;20024;-57
2023/06/09 05:47:01;;;;;;;18.63;14.20;;;20.90;99.90;;;;;;5051744;28;20025;-60
2023/06/09 05:49:27;;;;;;;15.88;12.52;;;21.00;99.90;;;;;;5051968;28;20426;-58
2023/06/09 05:51:53;;;;;;;11.88;10.65;;;21.00;99.90;;;;;;5051761;28;20110;-60
2023/06/09 05:54:19;;;;;;;11.05;9.88;;;21.00;99.40;;;;;;5051700;28;20032;-56
2023/06/09 05:56:48;;;;;;;18.90;10.83;;;21.00;98.50;;;;;;5050296;28;20475;-57
2023/06/09 05:59:15;;;;;;;13.60;9.82;;;21.00;98.60;;;;;;5051743;28;20036;-60
2023/06/09 06:01:41;;;;;;;11.18;10.00;;;21.10;98.40;;;;;;5050297;28;20029;-58
2023/06/09 06:04:08;;;;;;;;;;;21.10;98.60;;;;;;5052208;28;20064;-59
2023/06/09 06:06:34;;;;;;;9.23;8.32;;;21.20;98.00;;;;;;5051398;28;19905;-56
2023/06/09 06:09:00;;;;;;;9.35;8.05;;;21.20;97.60;;;;;;5051516;28;20470;-59
2023/06/09 06:11:28;;;;;;;10.32;9.32;;;21.30;96.50;;;;;;5050452;28;20037;-60
2023/06/09 06:13:54;;;;;;;12.63;9.48;;;21.30;96.80;;;;;;5050480;28;20043;-56
2023/06/09 06:16:19;;;;;;;10.45;9.05;;;21.40;97.10;;;;;;5050169;28;20449;-57
2023/06/09 06:18:45;;;;;;;9.75;8.63;;;21.40;96.20;;;;;;5050316;28;20422;-60
2023/06/09 06:21:11;;;;;;;13.10;9.20;;;21.50;96.70;;;;;;5050036;28;20025;-59
2023/06/09 06:23:37;;;;;;;11.45;8.98;;;21.60;97.00;;;;;;5051486;28;20029;-61
2023/06/09 06:26:03;;;;;;;10.27;8.50;;;21.60;95.60;;;;;;5050031;28;20095;-60
2023/06/09 06:28:29;;;;;;;12.77;8.80;;;21.60;96.00;;;;;;5033687;28;20376;-59
2023/06/09 06:30:55;;;;;;;9.70;8.47;;;21.70;96.80;;;;;;5050095;28;20036;-60
2023/06/09 06:33:21;;;;;;;13.90;10.13;;;21.70;97.20;;;;;;5051427;28;20070;-61
2023/06/09 06:35:47;;;;;;;25.25;8.38;;;21.90;96.90;;;;;;5049724;28;20029;-59
2023/06/09 06:38:13;;;;;;;9.37;7.93;;;22.00;96.10;;;;;;5051372;28;20025;-59
2023/06/09 06:40:40;;;;;;;9.77;8.27;;;22.00;94.70;;;;;;5049860;28;20060;-62
2023/06/09 06:43:06;;;;;;;9.82;8.32;;;22.00;94.50;;;;;;5051315;28;20025;-56
2023/06/09 06:45:55;;;;;;;10.90;8.73;;;22.10;94.90;;;;;;5049764;28;20025;-61
2023/06/09 06:48:21;;;;;;;10.60;8.35;;;22.10;94.80;;;;;;5051162;28;20381;-58
2023/06/09 06:50:47;;;;;;;12.05;8.77;;;22.20;94.60;;;;;;5049975;28;20036;-59
2023/06/09 06:53:13;;;;;;;9.52;8.60;;;22.30;93.60;;;;;;5049922;28;20029;-57
2023/06/09 06:55:38;;;;;;;11.27;9.23;;;22.30;94.00;;;;;;5052315;28;20029;-58
2023/06/09 06:58:04;;;;;;;10.50;9.37;;;22.40;94.80;;;;;;5055152;28;20033;-58
2023/06/09 07:00:30;;;;;;;12.17;10.50;;;22.50;94.20;;;;;;5053700;28;20099;-59
2023/06/09 07:02:56;;;;;;;10.00;9.00;;;22.50;93.80;;;;;;5054878;28;20064;-59
2023/06/09 07:05:22;;;;;;;10.80;9.70;;;22.50;93.80;;;;;;5070251;28;20071;-60
2023/06/09 07:07:48;;;;;;;10.77;9.73;;;22.60;93.80;;;;;;5053687;28;20024;-60
2023/06/09 07:10:15;;;;;;;13.57;9.53;;;22.70;93.50;;;;;;5054943;28;20044;-60
2023/06/09 07:12:41;;;;;;;10.88;9.77;;;22.70;93.30;;;;;;5053525;28;20044;-60
2023/06/09 07:15:07;;;;;;;15.52;9.70;;;22.80;92.60;;;;;;5054627;28;20021;-59
2023/06/09 07:17:33;;;;;;;14.32;10.43;;;22.90;93.10;;;;;;5054623;28;20028;-60
2023/06/09 07:20:00;;;;;;;11.90;10.40;;;23.00;92.70;;;;;;5054670;28;20033;-60
2023/06/09 07:22:26;;;;;;;12.82;10.70;;;23.10;91.80;;;;;;5036652;28;20434;-62
2023/06/09 07:24:52;;;;;;;13.65;10.77;;;23.20;91.70;;;;;;5054446;28;20074;-60
2023/06/09 07:27:18;;;;;;;12.57;10.03;;;23.40;91.10;;;;;;5054616;28;20022;-59
2023/06/09 07:29:44;;;;;;;10.67;9.57;;;23.50;90.10;;;;;;5054523;28;20399;-60
2023/06/09 07:32:10;;;;;;;12.00;10.70;;;23.70;89.70;;;;;;5054335;28;20032;-61
2023/06/09 07:34:37;;;;;;;14.43;9.75;;;23.70;88.60;;;;;;5053130;28;20099;-60
2023/06/09 07:37:04;;;;;;;13.95;11.43;;;23.80;87.70;;;;;;5054176;28;20037;-58
2023/06/09 07:39:30;;;;;;;;;;;23.90;89.90;;;;;;5054650;28;20032;-62
2023/06/09 07:41:56;;;;;;;11.30;9.95;;;24.00;88.30;;;;;;5054297;28;19908;-57
2023/06/09 07:44:24;;;;;;;11.87;10.67;;;24.10;87.80;;;;;;5054234;28;20021;-59
2023/06/09 07:46:50;;;;;;;11.57;10.13;;;24.20;87.40;;;;;;5053913;28;20037;-58
2023/06/09 07:49:16;;;;;;;11.73;10.53;;;24.20;88.40;;;;;;5054193;28;20033;-58
2023/06/09 07:51:43;;;;;;;12.10;9.35;;;24.30;88.50;;;;;;5052844;28;20267;-62
2023/06/09 07:54:09;;;;;;;10.43;8.95;;;24.40;85.70;;;;;;5054130;28;20028;-60
2023/06/09 07:56:36;;;;;;;10.10;7.67;;;24.50;85.80;;;;;;5053900;28;20021;-60
2023/06/09 07:59:02;;;;;;;9.02;8.10;;;24.60;84.20;;;;;;5053872;28;20032;-58
2023/06/09 08:01:32;;;;;;;9.23;7.53;;;24.70;82.50;;;;;;5054242;28;20120;-57
2023/06/09 08:04:01;;;;;;;8.18;7.30;;;24.70;82.10;;;;;;5053967;28;20438;-60
2023/06/09 08:06:28;;;;;;;10.35;8.48;;;24.80;81.30;;;;;;5053653;28;20036;-59
2023/06/09 08:08:55;;;;;;;9.85;8.30;;;24.90;79.00;;;;;;5054166;28;20040;-60
2023/06/09 08:11:20;;;;;;;9.63;8.43;;;24.70;78.00;;;;;;5054103;28;20025;-57
2023/06/09 08:13:46;;;;;;;9.47;8.37;;;24.80;79.40;;;;;;5053665;28;20167;-60
2023/06/09 08:16:12;;;;;;;11.70;9.73;;;24.90;79.00;;;;;;5052256;28;20039;-54
2023/06/09 08:18:38;;;;;;;10.90;8.50;;;25.00;78.00;;;;;;5053587;28;20058;-60
2023/06/09 08:21:04;;;;;;;9.93;8.67;;;25.00;77.30;;;;;;5053541;28;20104;-57
2023/06/09 08:23:30;;;;;;;10.73;9.18;;;25.00;76.30;;;;;;5053553;28;20510;-60
2023/06/09 08:25:56;;;;;;;10.70;8.47;;;25.00;77.10;;;;;;5053320;28;20025;-59
2023/06/09 08:28:21;;;;;;;11.63;9.07;;;25.10;77.30;;;;;;5053385;28;20040;-60
2023/06/09 08:30:47;;;;;;;10.67;8.53;;;25.10;76.80;;;;;;5052045;28;20079;-59
2023/06/09 08:33:13;;;;;;;9.50;8.00;;;25.10;75.20;;;;;;5053330;28;20044;-61
2023/06/09 08:35:39;;;;;;;11.00;9.90;;;25.20;75.40;;;;;;5053204;28;20037;-57
2023/06/09 08:38:05;;;;;;;12.73;9.50;;;25.30;74.20;;;;;;5053322;28;20029;-59
2023/06/09 08:40:31;;;;;;;12.67;9.70;;;25.20;72.90;;;;;;5053620;28;20037;-61
2023/06/09 08:43:00;;;;;;;10.98;9.88;;;25.20;74.10;;;;;;5051774;28;20028;-61
2023/06/09 08:45:27;;;;;;;11.57;10.40;;;25.20;73.40;;;;;;5052982;28;20108;-56
2023/06/09 08:47:57;;;;;;;11.00;9.23;;;25.30;73.80;;;;;;5035108;28;20498;-60
2023/06/09 08:50:28;;;;;;;9.50;8.15;;;25.50;72.80;;;;;;5053116;28;20029;-60
2023/06/09 08:52:55;;;;;;;14.73;10.10;;;25.50;74.10;;;;;;5052911;28;20071;-62
2023/06/09 08:55:21;;;;;;;10.82;9.05;;;25.70;74.80;;;;;;5052655;28;20025;-62
2023/06/09 08:57:49;;;;;;;10.52;9.50;;;25.80;73.40;;;;;;5052838;28;20487;-62
2023/06/09 09:00:16;;;;;;;12.95;10.75;;;25.90;74.90;;;;;;5051547;28;20045;-62
2023/06/09 09:02:43;;;;;;;11.88;10.40;;;25.90;72.70;;;;;;5052649;28;20025;-61
2023/06/09 09:05:13;;;;;;;11.82;10.35;;;25.80;74.20;;;;;;5052559;28;20017;-61
2023/06/09 09:07:40;;;;;;;12.40;9.10;;;25.80;72.30;;;;;;5052491;28;20072;-63
2023/06/09 09:10:06;;;;;;;13.90;11.20;;;25.70;71.20;;;;;;5052428;28;20515;-62
2023/06/09 09:12:49;;;;;;;14.82;10.15;;;25.60;71.70;;;;;;5052688;28;20112;-61
2023/06/09 09:15:15;;;;;;;14.27;10.07;;;25.60;71.70;;;;;;5051133;28;20119;-62
2023/06/09 09:17:40;;;;;;;12.93;11.63;;;25.60;73.30;;;;;;5052352;28;20127;-62
2023/06/09 09:20:07;;;;;;;12.03;10.73;;;25.80;73.80;;;;;;5052121;28;20151;-62
2023/06/09 09:23:04;;;;;;;12.45;10.93;;;25.80;72.10;;;;;;5051109;28;20392;-63
2023/06/09 09:25:31;;;;;;;13.25;10.43;;;25.80;69.50;;;;;;5038928;28;20503;-62
2023/06/09 09:28:10;;;;;;;13.27;11.80;;;25.70;72.80;;;;;;5052284;28;20518;-63
2023/06/09 09:30:49;;;;;;;13.27;11.98;;;25.50;73.40;;;;;;5050745;28;20085;-62
2023/06/09 09:33:20;;;;;;;12.27;10.90;;;25.40;73.40;;;;;;5052224;28;20063;-62
2023/06/09 09:35:51;;;;;;;11.82;10.73;;;25.50;76.00;;;;;;5051886;28;20036;-62
2023/06/09 09:38:22;;;;;;;12.43;11.27;;;25.40;73.70;;;;;;5052123;28;20032;-61
2023/06/09 09:40:51;;;;;;;12.57;11.13;;;25.50;75.80;;;;;;5050567;28;20039;-62
2023/06/09 09:43:19;;;;;;;12.43;10.85;;;25.50;75.00;;;;;;5051872;28;20028;-62
2023/06/09 09:45:47;;;;;;;13.38;11.93;;;25.60;76.00;;;;;;5050724;28;20021;-62
2023/06/09 09:48:15;;;;;;;14.00;12.60;;;25.70;75.20;;;;;;5052200;28;20036;-62
2023/06/09 09:50:45;;;;;;;13.43;11.45;;;25.80;74.70;;;;;;5051733;28;20037;-62
2023/06/09 09:53:12;;;;;;;12.43;11.13;;;25.80;74.60;;;;;;5051972;28;20028;-62
2023/06/09 09:55:42;;;;;;;12.75;11.45;;;25.90;74.60;;;;;;5051597;28;20110;-62
2023/06/09 09:58:09;;;;;;;14.35;12.40;;;26.00;76.30;;;;;;5051807;28;20036;-62
2023/06/09 10:00:37;;;;;;;15.45;13.25;;;26.00;74.80;;;;;;5051598;28;20413;-62
2023/06/09 10:03:07;;;;;;;13.05;11.75;;;26.10;73.70;;;;;;5051817;28;20486;-62
2023/06/09 10:05:36;;;;;;;13.55;12.18;;;26.10;74.10;;;;;;5051413;28;20377;-62
2023/06/09 10:08:05;;;;;;;20.58;13.95;;;26.10;73.80;;;;;;5050391;28;20032;-62
2023/06/09 10:10:34;;;;;;;15.88;14.25;;;26.20;73.80;;;;;;5050207;28;20411;-62
2023/06/09 10:13:03;;;;;;;13.43;11.98;;;26.20;73.40;;;;;;5052360;28;20039;-61
2023/06/09 10:15:29;;;;;;;16.67;12.68;;;26.30;74.40;;;;;;5063151;28;20056;-60
2023/06/09 10:17:57;;;;;;;14.57;13.10;;;26.30;72.20;;;;;;5048492;28;20025;-63
2023/06/09 10:20:23;;;;;;;15.48;13.80;;;26.40;72.10;;;;;;5051755;28;20028;-62
2023/06/09 10:22:51;;;;;;;19.23;13.23;;;26.40;72.80;;;;;;5067483;28;20391;-63
2023/06/09 10:25:17;;;;;;;14.43;13.02;;;26.30;72.20;;;;;;5071374;28;20025;-63
2023/06/09 10:27:43;;;;;;;13.90;12.52;;;26.40;72.60;;;;;;5071463;28;20024;-62
2023/06/09 10:30:09;;;;;;;13.43;11.90;;;26.50;69.90;;;;;;5070883;28;20115;-63
2023/06/09 10:32:49;;;;;;;12.23;10.93;;;26.50;70.50;;;;;;5075628;28;20031;-63
2023/06/09 10:35:27;;;;;;;13.20;11.65;;;26.60;68.50;;;;;;5054874;28;20404;-62
2023/06/09 10:37:53;;;;;;;14.38;12.98;;;26.70;67.80;;;;;;5053492;28;20032;-62
2023/06/09 10:40:35;;;;;;;13.30;12.07;;;26.70;67.50;;;;;;5053537;28;20074;-63
2023/06/09 10:43:13;;;;;;;15.48;12.38;;;26.80;68.30;;;;;;5053990;28;20028;-62
2023/06/09 10:45:55;;;;;;;16.58;14.90;;;26.80;68.60;;;;;;5052497;28;20036;-62
2023/06/09 10:48:53;;;;;;;20.20;17.42;;;26.90;68.60;;;;;;5054153;28;20029;-62
2023/06/09 10:51:28;;;;;;;25.38;17.05;;;27.00;69.30;;;;;;5042982;28;20045;-62
2023/06/09 10:54:09;;;;;;;19.40;17.55;;;27.00;67.60;;;;;;5055150;28;20126;-63
2023/06/09 10:56:55;;;;;;;20.08;17.98;;;27.10;69.50;;;;;;5054670;28;20260;-62
2023/06/09 10:59:25;;;;;;;21.85;17.98;;;27.20;71.30;;;;;;5063946;28;20064;-62
2023/06/09 11:02:02;;;;;;;20.48;17.65;;;27.40;69.30;;;;;;5041879;28;20120;-63
2023/06/09 11:04:37;;;;;;;19.08;17.08;;;27.50;69.00;;;;;;5056737;28;20029;-62
2023/06/09 11:07:25;;;;;;;19.95;17.83;;;27.70;70.20;;;;;;5069941;28;20013;-62
2023/06/09 11:09:51;;;;;;;19.73;17.80;;;28.10;67.50;;;;;;5058707;28;20028;-62
2023/06/09 11:12:38;;;;;;;18.77;16.80;;;28.30;68.10;;;;;;5066855;28;20036;-63
2023/06/09 11:15:09;;;;;;;19.33;16.67;;;28.70;66.40;;;;;;5067560;28;20448;-63
2023/06/09 11:17:37;;;;;;;18.00;16.10;;;28.90;66.10;;;;;;5056950;28;20032;-62
2023/06/09 11:20:09;;;;;;;18.10;14.43;;;29.10;65.70;;;;;;5072134;28;20028;-61
2023/06/09 11:22:41;;;;;;;14.52;13.18;;;29.30;64.80;;;;;;5073841;28;20040;-63
2023/06/09 11:25:08;;;;;;;15.88;14.32;;;29.60;66.00;;;;;;5060510;28;20083;-63
2023/06/09 11:27:34;;;;;;;15.80;14.15;;;29.80;62.80;;;;;;5066175;28;20366;-62
2023/06/09 11:30:14;;;;;;;15.50;14.07;;;29.80;61.50;;;;;;5045634;28;20025;-64
2023/06/09 11:32:45;;;;;;;15.30;13.82;;;29.90;61.60;;;;;;5062384;28;20043;-63
2023/06/09 11:35:31;;;;;;;16.20;13.30;;;29.80;60.70;;;;;;5058732;28;20066;-63
2023/06/09 11:38:02;;;;;;;14.70;12.82;;;29.60;58.20;;;;;;5058149;28;20085;-63
2023/06/09 11:40:33;;;;;;;14.63;13.02;;;29.40;59.50;;;;;;5065348;28;20029;-63
2023/06/09 11:43:03;;;;;;;12.07;10.98;;;29.30;60.10;;;;;;5056674;28;20053;-63
2023/06/09 11:45:31;;;;;;;12.95;11.57;;;29.30;58.90;;;;;;5056085;28;20024;-62
2023/06/09 11:48:02;;;;;;;13.27;11.98;;;29.30;59.70;;;;;;5064156;28;20435;-62
2023/06/09 11:50:43;;;;;;;12.13;10.82;;;29.20;58.50;;;;;;5065044;28;20056;-63
2023/06/09 11:53:13;;;;;;;12.10;10.80;;;29.30;57.70;;;;;;5056971;28;20025;-64
2023/06/09 11:55:39;;;;;;;14.75;13.25;;;29.20;59.10;;;;;;5056523;28;20498;-62
2023/06/09 11:58:09;;;;;;;14.70;9.52;;;29.30;58.10;;;;;;5063181;28;20047;-62
2023/06/09 12:00:41;;;;;;;11.57;9.43;;;29.40;60.00;;;;;;5062860;28;20099;-63
2023/06/09 12:03:07;;;;;;;8.68;7.88;;;29.50;56.60;;;;;;5056848;28;20107;-63
2023/06/09 12:05:33;;;;;;;7.65;6.88;;;29.70;56.80;;;;;;5068726;28;20131;-63
2023/06/09 12:08:02;;;;;;;11.43;9.65;;;29.80;56.40;;;;;;5062020;28;20020;-63
2023/06/09 12:10:29;;;;;;;9.80;8.90;;;29.90;54.90;;;;;;5060000;28;20048;-63
2023/06/09 12:12:56;;;;;;;;;;;30.10;55.20;;;;;;5056076;28;20037;-62
2023/06/09 12:15:23;;;;;;;13.70;10.40;;;29.90;53.70;;;;;;5069545;28;20382;-63
2023/06/09 12:17:51;;;;;;;15.48;9.15;;;29.70;54.40;;;;;;5057715;28;20032;-61
2023/06/09 12:20:37;;;;;;;9.93;8.82;;;29.70;54.90;;;;;;5046051;28;20029;-63
2023/06/09 12:23:04;;;;;;;8.23;7.47;;;29.70;54.30;;;;;;5056548;28;20487;-62
2023/06/09 12:25:35;;;;;;;10.02;9.00;;;29.80;55.60;;;;;;5066506;28;20475;-62
2023/06/09 12:28:21;;;;;;;16.15;9.50;;;29.90;55.00;;;;;;5060734;28;20415;-61
2023/06/09 12:30:51;;;;;;;11.75;9.80;;;30.10;56.10;;;;;;5065474;28;20036;-63
2023/06/09 12:33:19;;;;;;;10.38;9.27;;;30.30;54.50;;;;;;5054249;28;20136;-64
2023/06/09 12:35:51;;;;;;;12.07;8.15;;;30.30;53.80;;;;;;5040999;28;20036;-62
2023/06/09 12:38:21;;;;;;;11.68;7.68;;;30.40;53.80;;;;;;5062957;28;20035;-63